sensor_id;sensor_type;location;lat;lon;timestamp;P1;durP1;ratioP1;P2;durP2;ratioP2
48552;SDS011;34335;51.566;6.994;2023-06-05T00:01:47;2.75;;;1.08;;
48552;SDS011;34335;51.566;6.994;2023-06-05T00:04:12;2.28;;;0.82;;
48552;SDS011;34335;51.566;6.994;2023-06-05T00:06:38;1.55;;;0.73;;
48552;SDS011;34335;51.566;6.994;2023-06-05T00:09:04;1.85;;;0.77;;
48552;SDS011;34335;51.566;6.994;2023-06-05T00:11:29;1.55;;;0.85;;
48552;SDS011;34335;51.566;6.994;2023-06-05T00:13:55;2.67;;;0.90;;
48552;SDS011;34335;51.566;6.994;2023-06-05T00:16:20;2.53;;;0.88;;
48552;SDS011;34335;51.566;6.994;2023-06-05T00:18:46;2.80;;;0.85;;
48552;SDS011;34335;51.566;6.994;2023-06-05T00:21:14;2.75;;;1.00;;
48552;SDS011;34335;51.566;6.994;2023-06-05T00:23:44;1.63;;;0.60;;
48552;SDS011;34335;51.566;6.994;2023-06-05T00:26:10;1.77;;;0.75;;
48552;SDS011;34335;51.566;6.994;2023-06-05T00:28:35;1.27;;;0.73;;
48552;SDS011;34335;51.566;6.994;2023-06-05T00:31:03;3.97;;;0.77;;
48552;SDS011;34335;51.566;6.994;2023-06-05T00:33:29;3.28;;;1.10;;
48552;SDS011;34335;51.566;6.994;2023-06-05T00:35:55;1.75;;;0.93;;
48552;SDS011;34335;51.566;6.994;2023-06-05T00:38:21;2.20;;;0.95;;
48552;SDS011;34335;51.566;6.994;2023-06-05T00:40:46;3.10;;;1.20;;
48552;SDS011;34335;51.566;6.994;2023-06-05T00:43:11;6.47;;;1.40;;
48552;SDS011;34335;51.566;6.994;2023-06-05T00:45:37;1.47;;;0.60;;
48552;SDS011;34335;51.566;6.994;2023-06-05T00:48:02;1.90;;;0.97;;
48552;SDS011;34335;51.566;6.994;2023-06-05T00:50:28;1.48;;;0.90;;
48552;SDS011;34335;51.566;6.994;2023-06-05T00:52:56;1.55;;;0.98;;
48552;SDS011;34335;51.566;6.994;2023-06-05T00:55:21;4.10;;;1.00;;
48552;SDS011;34335;51.566;6.994;2023-06-05T00:57:47;1.38;;;0.70;;
48552;SDS011;34335;51.566;6.994;2023-06-05T01:00:13;1.67;;;0.82;;
48552;SDS011;34335;51.566;6.994;2023-06-05T01:02:40;4.28;;;1.00;;
48552;SDS011;34335;51.566;6.994;2023-06-05T01:05:06;2.55;;;0.90;;
48552;SDS011;34335;51.566;6.994;2023-06-05T01:07:32;2.58;;;0.77;;
48552;SDS011;34335;51.566;6.994;2023-06-05T01:10:02;1.90;;;1.00;;
48552;SDS011;34335;51.566;6.994;2023-06-05T01:12:45;3.25;;;1.00;;
48552;SDS011;34335;51.566;6.994;2023-06-05T01:15:18;3.35;;;1.15;;
48552;SDS011;34335;51.566;6.994;2023-06-05T01:17:54;2.25;;;1.00;;
48552;SDS011;34335;51.566;6.994;2023-06-05T01:20:21;1.77;;;0.80;;
48552;SDS011;34335;51.566;6.994;2023-06-05T01:22:50;2.13;;;1.15;;
48552;SDS011;34335;51.566;6.994;2023-06-05T01:25:17;3.95;;;1.00;;
48552;SDS011;34335;51.566;6.994;2023-06-05T01:30:40;2.55;;;1.08;;
48552;SDS011;34335;51.566;6.994;2023-06-05T01:33:20;3.05;;;1.10;;
48552;SDS011;34335;51.566;6.994;2023-06-05T01:35:51;3.47;;;1.23;;
48552;SDS011;34335;51.566;6.994;2023-06-05T01:38:18;7.07;;;1.95;;
48552;SDS011;34335;51.566;6.994;2023-06-05T01:40:45;3.35;;;1.17;;
48552;SDS011;34335;51.566;6.994;2023-06-05T01:43:13;4.85;;;1.20;;
48552;SDS011;34335;51.566;6.994;2023-06-05T01:45:40;4.45;;;0.63;;
48552;SDS011;34335;51.566;6.994;2023-06-05T01:48:07;3.30;;;1.30;;
48552;SDS011;34335;51.566;6.994;2023-06-05T01:50:35;4.85;;;1.15;;
48552;SDS011;34335;51.566;6.994;2023-06-05T01:53:02;2.78;;;1.05;;
48552;SDS011;34335;51.566;6.994;2023-06-05T01:55:28;2.10;;;1.20;;
48552;SDS011;34335;51.566;6.994;2023-06-05T01:57:54;1.92;;;1.05;;
48552;SDS011;34335;51.566;6.994;2023-06-05T02:00:19;2.70;;;1.08;;
48552;SDS011;34335;51.566;6.994;2023-06-05T02:02:45;2.08;;;1.00;;
48552;SDS011;34335;51.566;6.994;2023-06-05T02:05:12;2.65;;;1.15;;
48552;SDS011;34335;51.566;6.994;2023-06-05T02:07:39;3.88;;;1.02;;
48552;SDS011;34335;51.566;6.994;2023-06-05T02:10:06;2.42;;;1.00;;
48552;SDS011;34335;51.566;6.994;2023-06-05T02:12:32;4.63;;;1.30;;
48552;SDS011;34335;51.566;6.994;2023-06-05T02:15:01;3.72;;;1.17;;
48552;SDS011;34335;51.566;6.994;2023-06-05T02:17:26;1.23;;;0.73;;
48552;SDS011;34335;51.566;6.994;2023-06-05T02:19:51;3.05;;;1.40;;
48552;SDS011;34335;51.566;6.994;2023-06-05T02:22:17;3.63;;;1.40;;
48552;SDS011;34335;51.566;6.994;2023-06-05T02:24:43;3.95;;;1.40;;
48552;SDS011;34335;51.566;6.994;2023-06-05T02:27:09;3.20;;;1.25;;
48552;SDS011;34335;51.566;6.994;2023-06-05T02:29:36;2.67;;;1.20;;
48552;SDS011;34335;51.566;6.994;2023-06-05T02:32:01;1.55;;;0.88;;
48552;SDS011;34335;51.566;6.994;2023-06-05T02:34:27;2.55;;;1.10;;
48552;SDS011;34335;51.566;6.994;2023-06-05T02:36:53;3.33;;;1.20;;
48552;SDS011;34335;51.566;6.994;2023-06-05T02:39:18;3.45;;;1.58;;
48552;SDS011;34335;51.566;6.994;2023-06-05T02:41:44;2.17;;;1.00;;
48552;SDS011;34335;51.566;6.994;2023-06-05T02:44:09;2.08;;;0.80;;
48552;SDS011;34335;51.566;6.994;2023-06-05T02:46:35;4.57;;;1.53;;
48552;SDS011;34335;51.566;6.994;2023-06-05T02:49:00;3.22;;;1.30;;
48552;SDS011;34335;51.566;6.994;2023-06-05T02:51:25;4.57;;;1.75;;
48552;SDS011;34335;51.566;6.994;2023-06-05T02:53:51;2.47;;;1.45;;
48552;SDS011;34335;51.566;6.994;2023-06-05T02:56:16;3.07;;;1.37;;
48552;SDS011;34335;51.566;6.994;2023-06-05T02:58:41;5.25;;;1.17;;
48552;SDS011;34335;51.566;6.994;2023-06-05T03:01:08;1.83;;;1.08;;
48552;SDS011;34335;51.566;6.994;2023-06-05T03:03:36;4.35;;;1.30;;
48552;SDS011;34335;51.566;6.994;2023-06-05T03:06:01;4.93;;;2.25;;
48552;SDS011;34335;51.566;6.994;2023-06-05T03:08:29;5.60;;;1.55;;
48552;SDS011;34335;51.566;6.994;2023-06-05T03:10:58;2.40;;;1.10;;
48552;SDS011;34335;51.566;6.994;2023-06-05T03:13:30;4.20;;;1.80;;
48552;SDS011;34335;51.566;6.994;2023-06-05T03:15:57;6.32;;;1.20;;
48552;SDS011;34335;51.566;6.994;2023-06-05T03:18:26;3.33;;;1.15;;
48552;SDS011;34335;51.566;6.994;2023-06-05T03:20:52;2.58;;;1.27;;
48552;SDS011;34335;51.566;6.994;2023-06-05T03:23:27;3.53;;;1.58;;
48552;SDS011;34335;51.566;6.994;2023-06-05T03:25:53;2.15;;;1.27;;
48552;SDS011;34335;51.566;6.994;2023-06-05T03:28:20;3.97;;;1.42;;
48552;SDS011;34335;51.566;6.994;2023-06-05T03:30:47;2.83;;;1.08;;
48552;SDS011;34335;51.566;6.994;2023-06-05T03:33:13;3.60;;;1.70;;
48552;SDS011;34335;51.566;6.994;2023-06-05T03:35:40;5.13;;;1.67;;
48552;SDS011;34335;51.566;6.994;2023-06-05T03:38:06;3.70;;;1.60;;
48552;SDS011;34335;51.566;6.994;2023-06-05T03:40:31;3.47;;;1.45;;
48552;SDS011;34335;51.566;6.994;2023-06-05T03:42:57;4.35;;;1.40;;
48552;SDS011;34335;51.566;6.994;2023-06-05T03:45:22;3.15;;;1.40;;
48552;SDS011;34335;51.566;6.994;2023-06-05T03:47:48;2.53;;;1.10;;
48552;SDS011;34335;51.566;6.994;2023-06-05T03:50:14;2.92;;;1.50;;
48552;SDS011;34335;51.566;6.994;2023-06-05T03:52:40;4.80;;;2.00;;
48552;SDS011;34335;51.566;6.994;2023-06-05T03:55:06;2.72;;;1.30;;
48552;SDS011;34335;51.566;6.994;2023-06-05T03:57:33;2.33;;;1.02;;
48552;SDS011;34335;51.566;6.994;2023-06-05T03:59:58;3.22;;;1.30;;
48552;SDS011;34335;51.566;6.994;2023-06-05T04:02:24;6.10;;;1.83;;
48552;SDS011;34335;51.566;6.994;2023-06-05T04:04:50;2.80;;;1.35;;
48552;SDS011;34335;51.566;6.994;2023-06-05T04:07:16;3.20;;;1.38;;
48552;SDS011;34335;51.566;6.994;2023-06-05T04:09:41;4.28;;;1.58;;
48552;SDS011;34335;51.566;6.994;2023-06-05T04:12:07;4.55;;;1.58;;
48552;SDS011;34335;51.566;6.994;2023-06-05T04:14:32;6.30;;;1.70;;
48552;SDS011;34335;51.566;6.994;2023-06-05T04:16:58;3.22;;;1.50;;
48552;SDS011;34335;51.566;6.994;2023-06-05T04:19:24;2.95;;;1.27;;
48552;SDS011;34335;51.566;6.994;2023-06-05T04:21:50;4.00;;;1.58;;
48552;SDS011;34335;51.566;6.994;2023-06-05T04:24:16;3.75;;;1.98;;
48552;SDS011;34335;51.566;6.994;2023-06-05T04:26:41;2.80;;;1.40;;
48552;SDS011;34335;51.566;6.994;2023-06-05T04:29:07;7.93;;;2.22;;
48552;SDS011;34335;51.566;6.994;2023-06-05T04:31:40;3.63;;;1.50;;
48552;SDS011;34335;51.566;6.994;2023-06-05T04:34:06;4.22;;;2.00;;
48552;SDS011;34335;51.566;6.994;2023-06-05T04:36:33;3.72;;;1.83;;
48552;SDS011;34335;51.566;6.994;2023-06-05T04:38:59;3.78;;;1.67;;
48552;SDS011;34335;51.566;6.994;2023-06-05T04:41:26;3.83;;;1.63;;
48552;SDS011;34335;51.566;6.994;2023-06-05T04:43:55;5.57;;;2.20;;
48552;SDS011;34335;51.566;6.994;2023-06-05T04:46:22;3.40;;;1.60;;
48552;SDS011;34335;51.566;6.994;2023-06-05T04:48:48;2.75;;;1.38;;
48552;SDS011;34335;51.566;6.994;2023-06-05T04:51:13;5.10;;;2.53;;
48552;SDS011;34335;51.566;6.994;2023-06-05T04:53:39;22.38;;;3.22;;
48552;SDS011;34335;51.566;6.994;2023-06-05T04:56:06;9.00;;;2.53;;
48552;SDS011;34335;51.566;6.994;2023-06-05T04:58:32;8.05;;;2.15;;
48552;SDS011;34335;51.566;6.994;2023-06-05T05:00:57;9.27;;;3.20;;
48552;SDS011;34335;51.566;6.994;2023-06-05T05:03:30;11.68;;;3.17;;
48552;SDS011;34335;51.566;6.994;2023-06-05T05:05:55;12.07;;;2.88;;
48552;SDS011;34335;51.566;6.994;2023-06-05T05:08:21;6.32;;;2.10;;
48552;SDS011;34335;51.566;6.994;2023-06-05T05:10:46;6.13;;;2.03;;
48552;SDS011;34335;51.566;6.994;2023-06-05T05:13:11;3.60;;;1.47;;
48552;SDS011;34335;51.566;6.994;2023-06-05T05:15:37;4.03;;;1.80;;
48552;SDS011;34335;51.566;6.994;2023-06-05T05:18:02;7.63;;;2.20;;
48552;SDS011;34335;51.566;6.994;2023-06-05T05:20:28;4.18;;;1.63;;
48552;SDS011;34335;51.566;6.994;2023-06-05T05:22:54;3.60;;;1.55;;
48552;SDS011;34335;51.566;6.994;2023-06-05T05:25:20;4.65;;;1.88;;
48552;SDS011;34335;51.566;6.994;2023-06-05T05:27:46;4.47;;;1.77;;
48552;SDS011;34335;51.566;6.994;2023-06-05T05:30:11;4.13;;;2.00;;
48552;SDS011;34335;51.566;6.994;2023-06-05T05:32:37;4.15;;;1.80;;
48552;SDS011;34335;51.566;6.994;2023-06-05T05:35:03;4.67;;;1.73;;
48552;SDS011;34335;51.566;6.994;2023-06-05T05:37:28;5.47;;;2.42;;
48552;SDS011;34335;51.566;6.994;2023-06-05T05:39:55;3.45;;;2.03;;
48552;SDS011;34335;51.566;6.994;2023-06-05T05:42:20;2.90;;;1.35;;
48552;SDS011;34335;51.566;6.994;2023-06-05T05:44:45;4.10;;;2.05;;
48552;SDS011;34335;51.566;6.994;2023-06-05T05:47:11;4.68;;;1.63;;
48552;SDS011;34335;51.566;6.994;2023-06-05T05:49:36;4.95;;;2.22;;
48552;SDS011;34335;51.566;6.994;2023-06-05T05:52:02;7.22;;;2.25;;
48552;SDS011;34335;51.566;6.994;2023-06-05T05:54:27;5.18;;;1.88;;
48552;SDS011;34335;51.566;6.994;2023-06-05T05:56:53;4.05;;;1.65;;
48552;SDS011;34335;51.566;6.994;2023-06-05T05:59:19;4.38;;;1.90;;
48552;SDS011;34335;51.566;6.994;2023-06-05T06:01:44;3.67;;;1.60;;
48552;SDS011;34335;51.566;6.994;2023-06-05T06:04:10;3.80;;;1.80;;
48552;SDS011;34335;51.566;6.994;2023-06-05T06:06:36;4.53;;;1.63;;
48552;SDS011;34335;51.566;6.994;2023-06-05T06:09:02;5.00;;;1.75;;
48552;SDS011;34335;51.566;6.994;2023-06-05T06:11:29;3.75;;;1.90;;
48552;SDS011;34335;51.566;6.994;2023-06-05T06:13:54;7.97;;;2.40;;
48552;SDS011;34335;51.566;6.994;2023-06-05T06:16:19;7.37;;;2.03;;
48552;SDS011;34335;51.566;6.994;2023-06-05T06:18:44;5.00;;;2.07;;
48552;SDS011;34335;51.566;6.994;2023-06-05T06:21:10;4.95;;;2.00;;
48552;SDS011;34335;51.566;6.994;2023-06-05T06:23:36;4.90;;;1.90;;
48552;SDS011;34335;51.566;6.994;2023-06-05T06:26:01;4.15;;;2.05;;
48552;SDS011;34335;51.566;6.994;2023-06-05T06:28:26;4.50;;;1.90;;
48552;SDS011;34335;51.566;6.994;2023-06-05T06:30:51;4.97;;;3.00;;
48552;SDS011;34335;51.566;6.994;2023-06-05T06:33:17;3.40;;;1.67;;
48552;SDS011;34335;51.566;6.994;2023-06-05T06:35:42;4.97;;;1.87;;
48552;SDS011;34335;51.566;6.994;2023-06-05T06:38:08;4.95;;;1.92;;
48552;SDS011;34335;51.566;6.994;2023-06-05T06:40:34;5.90;;;2.53;;
48552;SDS011;34335;51.566;6.994;2023-06-05T06:42:59;4.55;;;2.15;;
48552;SDS011;34335;51.566;6.994;2023-06-05T06:45:24;5.47;;;2.20;;
48552;SDS011;34335;51.566;6.994;2023-06-05T06:47:50;4.47;;;2.05;;
48552;SDS011;34335;51.566;6.994;2023-06-05T06:50:15;5.07;;;2.03;;
48552;SDS011;34335;51.566;6.994;2023-06-05T06:52:41;6.47;;;2.20;;
48552;SDS011;34335;51.566;6.994;2023-06-05T06:55:06;4.05;;;1.90;;
48552;SDS011;34335;51.566;6.994;2023-06-05T06:57:32;4.95;;;2.08;;
48552;SDS011;34335;51.566;6.994;2023-06-05T06:59:57;3.13;;;1.63;;
48552;SDS011;34335;51.566;6.994;2023-06-05T07:02:24;4.35;;;1.55;;
48552;SDS011;34335;51.566;6.994;2023-06-05T07:04:50;3.28;;;1.83;;
48552;SDS011;34335;51.566;6.994;2023-06-05T07:07:18;5.25;;;2.08;;
48552;SDS011;34335;51.566;6.994;2023-06-05T07:09:46;4.82;;;2.10;;
48552;SDS011;34335;51.566;6.994;2023-06-05T07:12:13;6.32;;;2.10;;
48552;SDS011;34335;51.566;6.994;2023-06-05T07:14:40;6.47;;;2.40;;
48552;SDS011;34335;51.566;6.994;2023-06-05T07:17:06;5.10;;;1.77;;
48552;SDS011;34335;51.566;6.994;2023-06-05T07:19:32;4.82;;;2.08;;
48552;SDS011;34335;51.566;6.994;2023-06-05T07:21:58;6.60;;;1.73;;
48552;SDS011;34335;51.566;6.994;2023-06-05T07:24:26;5.10;;;2.15;;
48552;SDS011;34335;51.566;6.994;2023-06-05T07:26:53;4.47;;;2.25;;
48552;SDS011;34335;51.566;6.994;2023-06-05T07:29:23;6.93;;;2.03;;
48552;SDS011;34335;51.566;6.994;2023-06-05T07:31:49;6.45;;;2.13;;
48552;SDS011;34335;51.566;6.994;2023-06-05T07:34:17;4.65;;;2.10;;
48552;SDS011;34335;51.566;6.994;2023-06-05T07:36:44;3.70;;;1.80;;
48552;SDS011;34335;51.566;6.994;2023-06-05T07:39:10;6.20;;;1.95;;
48552;SDS011;34335;51.566;6.994;2023-06-05T07:41:36;7.93;;;1.95;;
48552;SDS011;34335;51.566;6.994;2023-06-05T07:44:02;5.25;;;1.92;;
48552;SDS011;34335;51.566;6.994;2023-06-05T07:46:27;4.63;;;1.73;;
48552;SDS011;34335;51.566;6.994;2023-06-05T07:48:52;3.95;;;1.70;;
48552;SDS011;34335;51.566;6.994;2023-06-05T07:51:18;13.00;;;2.53;;
48552;SDS011;34335;51.566;6.994;2023-06-05T07:53:43;4.32;;;2.13;;
48552;SDS011;34335;51.566;6.994;2023-06-05T07:56:09;3.92;;;1.70;;
48552;SDS011;34335;51.566;6.994;2023-06-05T07:58:36;4.18;;;1.90;;
48552;SDS011;34335;51.566;6.994;2023-06-05T08:01:02;5.80;;;1.42;;
48552;SDS011;34335;51.566;6.994;2023-06-05T08:03:28;7.63;;;1.85;;
48552;SDS011;34335;51.566;6.994;2023-06-05T08:05:54;4.55;;;1.60;;
48552;SDS011;34335;51.566;6.994;2023-06-05T08:08:19;5.75;;;2.13;;
48552;SDS011;34335;51.566;6.994;2023-06-05T08:10:44;3.58;;;1.90;;
48552;SDS011;34335;51.566;6.994;2023-06-05T08:13:10;3.78;;;1.92;;
48552;SDS011;34335;51.566;6.994;2023-06-05T08:15:36;5.63;;;1.90;;
48552;SDS011;34335;51.566;6.994;2023-06-05T08:18:01;4.65;;;1.58;;
48552;SDS011;34335;51.566;6.994;2023-06-05T08:20:27;3.95;;;1.95;;
48552;SDS011;34335;51.566;6.994;2023-06-05T08:22:52;5.82;;;1.52;;
48552;SDS011;34335;51.566;6.994;2023-06-05T08:25:22;3.40;;;1.90;;
48552;SDS011;34335;51.566;6.994;2023-06-05T08:27:47;6.32;;;1.52;;
48552;SDS011;34335;51.566;6.994;2023-06-05T08:30:13;5.00;;;2.20;;
48552;SDS011;34335;51.566;6.994;2023-06-05T08:32:38;4.30;;;1.98;;
48552;SDS011;34335;51.566;6.994;2023-06-05T08:35:05;3.75;;;1.88;;
48552;SDS011;34335;51.566;6.994;2023-06-05T08:37:31;7.70;;;2.15;;
48552;SDS011;34335;51.566;6.994;2023-06-05T08:39:56;7.73;;;2.77;;
48552;SDS011;34335;51.566;6.994;2023-06-05T08:42:25;8.45;;;2.38;;
48552;SDS011;34335;51.566;6.994;2023-06-05T08:44:53;5.43;;;2.15;;
48552;SDS011;34335;51.566;6.994;2023-06-05T08:47:19;6.63;;;2.55;;
48552;SDS011;34335;51.566;6.994;2023-06-05T08:49:47;6.43;;;2.13;;
48552;SDS011;34335;51.566;6.994;2023-06-05T08:52:15;7.75;;;2.95;;
48552;SDS011;34335;51.566;6.994;2023-06-05T08:54:41;4.10;;;1.85;;
48552;SDS011;34335;51.566;6.994;2023-06-05T08:57:08;3.53;;;2.03;;
48552;SDS011;34335;51.566;6.994;2023-06-05T08:59:33;2.75;;;1.23;;
48552;SDS011;34335;51.566;6.994;2023-06-05T09:01:59;6.90;;;1.95;;
48552;SDS011;34335;51.566;6.994;2023-06-05T09:04:25;7.28;;;1.70;;
48552;SDS011;34335;51.566;6.994;2023-06-05T09:06:55;4.80;;;2.13;;
48552;SDS011;34335;51.566;6.994;2023-06-05T09:09:21;4.50;;;2.03;;
48552;SDS011;34335;51.566;6.994;2023-06-05T09:11:46;3.28;;;1.75;;
48552;SDS011;34335;51.566;6.994;2023-06-05T09:14:12;3.72;;;1.85;;
48552;SDS011;34335;51.566;6.994;2023-06-05T09:16:39;2.72;;;1.80;;
48552;SDS011;34335;51.566;6.994;2023-06-05T09:19:09;3.95;;;1.80;;
48552;SDS011;34335;51.566;6.994;2023-06-05T09:21:38;5.28;;;1.85;;
48552;SDS011;34335;51.566;6.994;2023-06-05T09:32:37;7.55;;;2.03;;
48552;SDS011;34335;51.566;6.994;2023-06-05T09:35:04;3.42;;;1.35;;
48552;SDS011;34335;51.566;6.994;2023-06-05T09:37:33;2.70;;;1.42;;
48552;SDS011;34335;51.566;6.994;2023-06-05T09:40:00;2.55;;;1.38;;
48552;SDS011;34335;51.566;6.994;2023-06-05T09:42:32;4.03;;;1.75;;
48552;SDS011;34335;51.566;6.994;2023-06-05T09:44:58;5.75;;;1.65;;
48552;SDS011;34335;51.566;6.994;2023-06-05T09:47:24;2.83;;;1.40;;
48552;SDS011;34335;51.566;6.994;2023-06-05T09:49:50;2.05;;;1.10;;
48552;SDS011;34335;51.566;6.994;2023-06-05T09:52:15;2.57;;;1.23;;
48552;SDS011;34335;51.566;6.994;2023-06-05T09:54:41;4.03;;;1.58;;
48552;SDS011;34335;51.566;6.994;2023-06-05T09:57:10;1.88;;;1.05;;
48552;SDS011;34335;51.566;6.994;2023-06-05T10:02:23;3.67;;;1.08;;
48552;SDS011;34335;51.566;6.994;2023-06-05T10:04:58;1.77;;;0.93;;
48552;SDS011;34335;51.566;6.994;2023-06-05T10:07:26;2.85;;;1.25;;
48552;SDS011;34335;51.566;6.994;2023-06-05T10:09:52;2.78;;;1.10;;
48552;SDS011;34335;51.566;6.994;2023-06-05T10:12:19;2.63;;;1.45;;
48552;SDS011;34335;51.566;6.994;2023-06-05T10:14:45;2.47;;;1.30;;
48552;SDS011;34335;51.566;6.994;2023-06-05T10:17:11;2.78;;;1.42;;
48552;SDS011;34335;51.566;6.994;2023-06-05T10:19:40;2.83;;;1.30;;
48552;SDS011;34335;51.566;6.994;2023-06-05T10:22:07;2.83;;;1.27;;
48552;SDS011;34335;51.566;6.994;2023-06-05T10:24:35;2.95;;;1.63;;
48552;SDS011;34335;51.566;6.994;2023-06-05T10:32:17;3.20;;;1.63;;
48552;SDS011;34335;51.566;6.994;2023-06-05T10:40:19;3.47;;;1.85;;
48552;SDS011;34335;51.566;6.994;2023-06-05T10:42:45;3.38;;;1.70;;
48552;SDS011;34335;51.566;6.994;2023-06-05T10:45:10;4.45;;;1.73;;
48552;SDS011;34335;51.566;6.994;2023-06-05T10:52:46;3.47;;;2.05;;
48552;SDS011;34335;51.566;6.994;2023-06-05T10:55:12;3.65;;;1.70;;
48552;SDS011;34335;51.566;6.994;2023-06-05T11:00:20;2.55;;;1.50;;
48552;SDS011;34335;51.566;6.994;2023-06-05T11:02:46;4.40;;;2.00;;
48552;SDS011;34335;51.566;6.994;2023-06-05T11:05:12;3.08;;;1.60;;
48552;SDS011;34335;51.566;6.994;2023-06-05T11:07:37;4.70;;;1.88;;
48552;SDS011;34335;51.566;6.994;2023-06-05T11:15:34;5.88;;;2.10;;
48552;SDS011;34335;51.566;6.994;2023-06-05T11:20:58;6.03;;;2.55;;
48552;SDS011;34335;51.566;6.994;2023-06-05T11:23:25;3.30;;;1.77;;
48552;SDS011;34335;51.566;6.994;2023-06-05T11:25:57;5.00;;;2.50;;
48552;SDS011;34335;51.566;6.994;2023-06-05T11:28:43;3.50;;;2.38;;
48552;SDS011;34335;51.566;6.994;2023-06-05T11:31:09;6.60;;;3.40;;
48552;SDS011;34335;51.566;6.994;2023-06-05T11:33:34;7.20;;;3.10;;
48552;SDS011;34335;51.566;6.994;2023-06-05T11:36:01;7.28;;;4.90;;
48552;SDS011;34335;51.566;6.994;2023-06-05T11:38:28;6.93;;;3.20;;
48552;SDS011;34335;51.566;6.994;2023-06-05T11:40:54;5.82;;;3.30;;
48552;SDS011;34335;51.566;6.994;2023-06-05T11:43:21;4.20;;;2.35;;
48552;SDS011;34335;51.566;6.994;2023-06-05T11:45:50;3.58;;;1.88;;
48552;SDS011;34335;51.566;6.994;2023-06-05T11:50:58;3.00;;;1.70;;
48552;SDS011;34335;51.566;6.994;2023-06-05T11:53:27;4.00;;;2.35;;
48552;SDS011;34335;51.566;6.994;2023-06-05T11:55:53;4.15;;;2.17;;
48552;SDS011;34335;51.566;6.994;2023-06-05T11:58:32;5.55;;;1.83;;
48552;SDS011;34335;51.566;6.994;2023-06-05T12:01:05;3.63;;;1.95;;
48552;SDS011;34335;51.566;6.994;2023-06-05T12:03:42;4.80;;;1.80;;
48552;SDS011;34335;51.566;6.994;2023-06-05T12:06:09;3.67;;;2.03;;
48552;SDS011;34335;51.566;6.994;2023-06-05T12:08:37;5.53;;;2.15;;
48552;SDS011;34335;51.566;6.994;2023-06-05T12:11:03;3.83;;;1.73;;
48552;SDS011;34335;51.566;6.994;2023-06-05T12:13:44;4.75;;;1.80;;
48552;SDS011;34335;51.566;6.994;2023-06-05T12:16:09;3.22;;;1.77;;
48552;SDS011;34335;51.566;6.994;2023-06-05T12:18:35;2.90;;;1.63;;
48552;SDS011;34335;51.566;6.994;2023-06-05T12:21:01;4.18;;;1.70;;
48552;SDS011;34335;51.566;6.994;2023-06-05T12:23:28;2.53;;;1.33;;
48552;SDS011;34335;51.566;6.994;2023-06-05T12:26:00;3.70;;;1.67;;
48552;SDS011;34335;51.566;6.994;2023-06-05T12:28:27;3.72;;;1.60;;
48552;SDS011;34335;51.566;6.994;2023-06-05T12:30:53;3.40;;;1.83;;
48552;SDS011;34335;51.566;6.994;2023-06-05T12:33:18;3.15;;;1.55;;
48552;SDS011;34335;51.566;6.994;2023-06-05T12:35:44;6.35;;;1.77;;
48552;SDS011;34335;51.566;6.994;2023-06-05T12:38:10;3.33;;;1.35;;
48552;SDS011;34335;51.566;6.994;2023-06-05T12:40:36;3.33;;;1.30;;
48552;SDS011;34335;51.566;6.994;2023-06-05T12:43:01;3.43;;;1.40;;
48552;SDS011;34335;51.566;6.994;2023-06-05T12:45:26;3.97;;;1.37;;
48552;SDS011;34335;51.566;6.994;2023-06-05T12:47:52;2.88;;;1.10;;
48552;SDS011;34335;51.566;6.994;2023-06-05T12:50:17;2.70;;;1.30;;
48552;SDS011;34335;51.566;6.994;2023-06-05T12:52:44;4.00;;;1.45;;
48552;SDS011;34335;51.566;6.994;2023-06-05T12:55:09;3.47;;;1.65;;
48552;SDS011;34335;51.566;6.994;2023-06-05T12:57:35;2.33;;;1.27;;
48552;SDS011;34335;51.566;6.994;2023-06-05T13:00:04;2.63;;;1.35;;
48552;SDS011;34335;51.566;6.994;2023-06-05T13:02:38;3.08;;;1.30;;
48552;SDS011;34335;51.566;6.994;2023-06-05T13:05:10;3.20;;;1.67;;
48552;SDS011;34335;51.566;6.994;2023-06-05T13:07:37;2.75;;;1.30;;
48552;SDS011;34335;51.566;6.994;2023-06-05T13:10:04;2.95;;;1.38;;
48552;SDS011;34335;51.566;6.994;2023-06-05T13:12:30;2.22;;;1.25;;
48552;SDS011;34335;51.566;6.994;2023-06-05T13:14:56;3.00;;;1.33;;
48552;SDS011;34335;51.566;6.994;2023-06-05T13:17:21;4.82;;;1.55;;
48552;SDS011;34335;51.566;6.994;2023-06-05T13:19:48;2.53;;;1.20;;
48552;SDS011;34335;51.566;6.994;2023-06-05T13:22:13;3.08;;;1.48;;
48552;SDS011;34335;51.566;6.994;2023-06-05T13:24:39;3.60;;;1.47;;
48552;SDS011;34335;51.566;6.994;2023-06-05T13:27:04;3.37;;;1.60;;
48552;SDS011;34335;51.566;6.994;2023-06-05T13:29:30;2.30;;;1.05;;
48552;SDS011;34335;51.566;6.994;2023-06-05T13:31:55;2.80;;;1.53;;
48552;SDS011;34335;51.566;6.994;2023-06-05T13:34:20;2.43;;;1.20;;
48552;SDS011;34335;51.566;6.994;2023-06-05T13:36:46;2.37;;;1.03;;
48552;SDS011;34335;51.566;6.994;2023-06-05T13:39:11;4.32;;;1.67;;
48552;SDS011;34335;51.566;6.994;2023-06-05T13:41:36;3.10;;;1.53;;
48552;SDS011;34335;51.566;6.994;2023-06-05T13:44:02;2.40;;;1.15;;
48552;SDS011;34335;51.566;6.994;2023-06-05T13:46:27;1.87;;;1.03;;
48552;SDS011;34335;51.566;6.994;2023-06-05T13:48:52;4.17;;;1.37;;
48552;SDS011;34335;51.566;6.994;2023-06-05T13:51:18;2.53;;;1.23;;
48552;SDS011;34335;51.566;6.994;2023-06-05T13:53:44;2.42;;;1.20;;
48552;SDS011;34335;51.566;6.994;2023-06-05T13:56:09;3.33;;;1.58;;
48552;SDS011;34335;51.566;6.994;2023-06-05T13:58:35;2.47;;;1.05;;
48552;SDS011;34335;51.566;6.994;2023-06-05T14:01:00;2.77;;;1.50;;
48552;SDS011;34335;51.566;6.994;2023-06-05T14:03:26;2.28;;;1.15;;
48552;SDS011;34335;51.566;6.994;2023-06-05T14:05:51;3.58;;;1.67;;
48552;SDS011;34335;51.566;6.994;2023-06-05T14:08:17;3.00;;;1.50;;
48552;SDS011;34335;51.566;6.994;2023-06-05T14:10:43;2.78;;;1.38;;
48552;SDS011;34335;51.566;6.994;2023-06-05T14:13:08;2.70;;;1.08;;
48552;SDS011;34335;51.566;6.994;2023-06-05T14:15:34;4.70;;;1.60;;
48552;SDS011;34335;51.566;6.994;2023-06-05T14:18:03;4.50;;;1.25;;
48552;SDS011;34335;51.566;6.994;2023-06-05T14:20:29;2.90;;;1.45;;
48552;SDS011;34335;51.566;6.994;2023-06-05T14:22:56;4.72;;;1.73;;
48552;SDS011;34335;51.566;6.994;2023-06-05T14:25:22;2.38;;;1.30;;
48552;SDS011;34335;51.566;6.994;2023-06-05T14:27:49;2.03;;;1.10;;
48552;SDS011;34335;51.566;6.994;2023-06-05T14:30:14;2.45;;;1.40;;
48552;SDS011;34335;51.566;6.994;2023-06-05T14:32:40;2.55;;;1.42;;
48552;SDS011;34335;51.566;6.994;2023-06-05T14:35:06;2.47;;;1.50;;
48552;SDS011;34335;51.566;6.994;2023-06-05T14:37:32;2.70;;;1.38;;
48552;SDS011;34335;51.566;6.994;2023-06-05T14:39:57;3.40;;;1.20;;
48552;SDS011;34335;51.566;6.994;2023-06-05T14:42:23;2.90;;;1.30;;
48552;SDS011;34335;51.566;6.994;2023-06-05T14:44:48;2.35;;;1.13;;
48552;SDS011;34335;51.566;6.994;2023-06-05T14:47:14;3.87;;;1.50;;
48552;SDS011;34335;51.566;6.994;2023-06-05T14:49:39;4.65;;;1.45;;
48552;SDS011;34335;51.566;6.994;2023-06-05T14:52:05;2.73;;;1.27;;
48552;SDS011;34335;51.566;6.994;2023-06-05T14:54:30;3.80;;;1.50;;
48552;SDS011;34335;51.566;6.994;2023-06-05T14:56:55;2.00;;;1.03;;
48552;SDS011;34335;51.566;6.994;2023-06-05T14:59:21;4.17;;;1.60;;
48552;SDS011;34335;51.566;6.994;2023-06-05T15:01:46;2.73;;;1.57;;
48552;SDS011;34335;51.566;6.994;2023-06-05T15:04:11;4.13;;;1.80;;
48552;SDS011;34335;51.566;6.994;2023-06-05T15:06:37;2.40;;;1.33;;
48552;SDS011;34335;51.566;6.994;2023-06-05T15:09:02;3.47;;;1.33;;
48552;SDS011;34335;51.566;6.994;2023-06-05T15:11:28;2.40;;;1.08;;
48552;SDS011;34335;51.566;6.994;2023-06-05T15:13:54;2.60;;;1.30;;
48552;SDS011;34335;51.566;6.994;2023-06-05T15:16:19;2.33;;;1.23;;
48552;SDS011;34335;51.566;6.994;2023-06-05T15:18:45;2.33;;;1.20;;
48552;SDS011;34335;51.566;6.994;2023-06-05T15:21:11;4.20;;;1.65;;
48552;SDS011;34335;51.566;6.994;2023-06-05T15:23:36;2.73;;;1.20;;
48552;SDS011;34335;51.566;6.994;2023-06-05T15:26:01;3.37;;;1.30;;
48552;SDS011;34335;51.566;6.994;2023-06-05T15:28:27;2.53;;;1.20;;